sensor_id;sensor_type;location;lat;lon;timestamp;pressure;altitude;pressure_sealevel;temperature;humidity
62374;BME280;48409;49.030;1.820;2022-10-19T00:01:41;101560.75;;;17.47;64.88
62374;BME280;48409;49.030;1.820;2022-10-19T00:04:07;101558.09;;;17.47;64.78
62374;BME280;48409;49.030;1.820;2022-10-19T00:06:34;101548.38;;;17.46;64.86
62374;BME280;48409;49.030;1.820;2022-10-19T00:09:18;101546.66;;;17.45;64.71
62374;BME280;48409;49.030;1.820;2022-10-19T00:11:47;101551.97;;;17.45;64.70
62374;BME280;48409;49.030;1.820;2022-10-19T00:14:19;101546.66;;;17.45;64.77
62374;BME280;48409;49.030;1.820;2022-10-19T00:16:46;101535.16;;;17.45;64.75
62374;BME280;48409;49.030;1.820;2022-10-19T00:19:15;101524.59;;;17.43;64.90
62374;BME280;48409;49.030;1.820;2022-10-19T00:21:44;101525.56;;;17.42;64.80
62374;BME280;48409;49.030;1.820;2022-10-19T00:24:09;101522.03;;;17.42;64.92
62374;BME280;48409;49.030;1.820;2022-10-19T00:26:35;101522.97;;;17.41;64.77
62374;BME280;48409;49.030;1.820;2022-10-19T00:29:01;101515.97;;;17.40;64.88
62374;BME280;48409;49.030;1.820;2022-10-19T00:31:26;101514.13;;;17.40;64.91
62374;BME280;48409;49.030;1.820;2022-10-19T00:33:54;101502.66;;;17.40;64.84
62374;BME280;48409;49.030;1.820;2022-10-19T00:36:39;101502.72;;;17.38;64.93
62374;BME280;48409;49.030;1.820;2022-10-19T00:39:07;101501.88;;;17.38;64.79
62374;BME280;48409;49.030;1.820;2022-10-19T00:41:34;101503.56;;;17.39;64.81
62374;BME280;48409;49.030;1.820;2022-10-19T00:44:06;101500.16;;;17.37;64.97
62374;BME280;48409;49.030;1.820;2022-10-19T00:46:48;101486.75;;;17.38;64.93
62374;BME280;48409;49.030;1.820;2022-10-19T00:49:18;101490.38;;;17.37;65.19
62374;BME280;48409;49.030;1.820;2022-10-19T00:51:48;101485.97;;;17.36;64.97
62374;BME280;48409;49.030;1.820;2022-10-19T00:54:14;101488.63;;;17.36;64.96
62374;BME280;48409;49.030;1.820;2022-10-19T00:56:43;101488.63;;;17.36;64.98
62374;BME280;48409;49.030;1.820;2022-10-19T00:59:09;101488.63;;;17.36;65.01
62374;BME280;48409;49.030;1.820;2022-10-19T01:01:35;101499.38;;;17.34;65.00
62374;BME280;48409;49.030;1.820;2022-10-19T01:04:02;101502.03;;;17.34;65.09
62374;BME280;48409;49.030;1.820;2022-10-19T01:06:28;101504.63;;;17.36;65.06
62374;BME280;48409;49.030;1.820;2022-10-19T01:08:54;101506.34;;;17.37;65.21
62374;BME280;48409;49.030;1.820;2022-10-19T01:11:29;101504.63;;;17.36;65.15
62374;BME280;48409;49.030;1.820;2022-10-19T01:30:58;101482.84;;;17.29;64.96
62374;BME280;48409;49.030;1.820;2022-10-19T01:33:47;101480.28;;;17.28;65.01
62374;BME280;48409;49.030;1.820;2022-10-19T01:36:41;101472.41;;;17.26;65.01
62374;BME280;48409;49.030;1.820;2022-10-19T01:42:00;101465.34;;;17.25;65.08
62374;BME280;48409;49.030;1.820;2022-10-19T01:44:29;101464.50;;;17.25;64.83
62374;BME280;48409;49.030;1.820;2022-10-19T01:47:03;101462.78;;;17.23;65.04
62374;BME280;48409;49.030;1.820;2022-10-19T01:49:47;101454.03;;;17.21;65.03
62374;BME280;48409;49.030;1.820;2022-10-19T01:52:17;101447.03;;;17.20;65.16
62374;BME280;48409;49.030;1.820;2022-10-19T01:54:46;101446.16;;;17.20;65.14
62374;BME280;48409;49.030;1.820;2022-10-19T01:57:18;101440.81;;;17.20;65.19
62374;BME280;48409;49.030;1.820;2022-10-19T01:59:46;101436.38;;;17.20;65.25
62374;BME280;48409;49.030;1.820;2022-10-19T02:02:13;101430.19;;;17.20;65.46
62374;BME280;48409;49.030;1.820;2022-10-19T02:04:40;101432.75;;;17.21;65.37
62374;BME280;48409;49.030;1.820;2022-10-19T02:07:07;101428.28;;;17.22;65.39
62374;BME280;48409;49.030;1.820;2022-10-19T02:09:34;101425.63;;;17.22;65.41
62374;BME280;48409;49.030;1.820;2022-10-19T02:12:02;101431.78;;;17.22;65.29
62374;BME280;48409;49.030;1.820;2022-10-19T02:14:32;101430.84;;;17.23;65.32
62374;BME280;48409;49.030;1.820;2022-10-19T02:17:05;101433.50;;;17.23;65.22
62374;BME280;48409;49.030;1.820;2022-10-19T02:19:32;101441.47;;;17.23;65.30
62374;BME280;48409;49.030;1.820;2022-10-19T02:21:57;101441.47;;;17.23;65.41
62374;BME280;48409;49.030;1.820;2022-10-19T02:24:23;101434.44;;;17.22;65.31
62374;BME280;48409;49.030;1.820;2022-10-19T02:26:48;101437.97;;;17.23;65.32
62374;BME280;48409;49.030;1.820;2022-10-19T02:29:14;101427.44;;;17.21;65.21
62374;BME280;48409;49.030;1.820;2022-10-19T02:31:40;101422.97;;;17.22;65.25
62374;BME280;48409;49.030;1.820;2022-10-19T02:34:06;101423.81;;;17.22;65.33
62374;BME280;48409;49.030;1.820;2022-10-19T02:36:32;101413.16;;;17.22;65.19
62374;BME280;48409;49.030;1.820;2022-10-19T02:38:57;101407.84;;;17.22;65.29
62374;BME280;48409;49.030;1.820;2022-10-19T02:41:28;101396.44;;;17.20;65.31
62374;BME280;48409;49.030;1.820;2022-10-19T02:44:02;101393.78;;;17.20;65.22
62374;BME280;48409;49.030;1.820;2022-10-19T02:46:38;101390.16;;;17.21;65.15
62374;BME280;48409;49.030;1.820;2022-10-19T02:49:06;101383.97;;;17.21;65.30
62374;BME280;48409;49.030;1.820;2022-10-19T02:51:36;101378.78;;;17.19;65.41
62374;BME280;48409;49.030;1.820;2022-10-19T02:54:03;101363.72;;;17.18;65.25
62374;BME280;48409;49.030;1.820;2022-10-19T02:56:29;101370.78;;;17.19;65.22
62374;BME280;48409;49.030;1.820;2022-10-19T02:58:55;101369.06;;;17.18;65.40
62374;BME280;48409;49.030;1.820;2022-10-19T03:01:20;101376.09;;;17.19;65.33
62374;BME280;48409;49.030;1.820;2022-10-19T03:03:46;101378.78;;;17.19;65.37
62374;BME280;48409;49.030;1.820;2022-10-19T03:06:12;101375.25;;;17.19;65.45
62374;BME280;48409;49.030;1.820;2022-10-19T03:08:37;101362.78;;;17.19;65.56
62374;BME280;48409;49.030;1.820;2022-10-19T03:11:03;101354.81;;;17.19;65.50
62374;BME280;48409;49.030;1.820;2022-10-19T03:13:28;101344.16;;;17.19;65.49
62374;BME280;48409;49.030;1.820;2022-10-19T03:15:54;101345.88;;;17.20;65.45
62374;BME280;48409;49.030;1.820;2022-10-19T03:18:19;101343.13;;;17.22;65.50
62374;BME280;48409;49.030;1.820;2022-10-19T03:20:44;101335.22;;;17.20;65.65
62374;BME280;48409;49.030;1.820;2022-10-19T03:23:10;101328.84;;;17.23;65.66
62374;BME280;48409;49.030;1.820;2022-10-19T03:25:35;101329.69;;;17.23;65.60
62374;BME280;48409;49.030;1.820;2022-10-19T03:28:00;101333.31;;;17.22;65.87
62374;BME280;48409;49.030;1.820;2022-10-19T03:30:26;101327.78;;;17.26;65.55
62374;BME280;48409;49.030;1.820;2022-10-19T03:32:51;101320.75;;;17.25;65.71
62374;BME280;48409;49.030;1.820;2022-10-19T03:35:17;101327.78;;;17.26;65.58
62374;BME280;48409;49.030;1.820;2022-10-19T03:37:42;101337.38;;;17.28;65.75
62374;BME280;48409;49.030;1.820;2022-10-19T03:40:08;101332.91;;;17.29;65.83
62374;BME280;48409;49.030;1.820;2022-10-19T03:42:34;101327.59;;;17.29;65.94
62374;BME280;48409;49.030;1.820;2022-10-19T03:44:59;101327.38;;;17.32;65.80
62374;BME280;48409;49.030;1.820;2022-10-19T03:47:24;101324.72;;;17.32;65.74
62374;BME280;48409;49.030;1.820;2022-10-19T03:49:50;101330.91;;;17.32;65.73
62374;BME280;48409;49.030;1.820;2022-10-19T03:52:19;101336.22;;;17.32;65.91
62374;BME280;48409;49.030;1.820;2022-10-19T03:54:45;101331.66;;;17.34;65.77
62374;BME280;48409;49.030;1.820;2022-10-19T03:57:11;101336.97;;;17.34;65.87
62374;BME280;48409;49.030;1.820;2022-10-19T03:59:36;101341.28;;;17.37;65.71
62374;BME280;48409;49.030;1.820;2022-10-19T04:02:02;101340.41;;;17.37;65.73
62374;BME280;48409;49.030;1.820;2022-10-19T04:04:28;101342.97;;;17.38;65.63
62374;BME280;48409;49.030;1.820;2022-10-19T04:06:53;101348.19;;;17.40;65.90
62374;BME280;48409;49.030;1.820;2022-10-19T04:09:20;101346.38;;;17.40;65.89
62374;BME280;48409;49.030;1.820;2022-10-19T04:11:47;101351.50;;;17.43;65.98
62374;BME280;48409;49.030;1.820;2022-10-19T04:14:14;101346.19;;;17.43;66.02
62374;BME280;48409;49.030;1.820;2022-10-19T04:16:40;101348.84;;;17.43;65.87
62374;BME280;48409;49.030;1.820;2022-10-19T04:19:05;101338.94;;;17.45;65.90
62374;BME280;48409;49.030;1.820;2022-10-19T04:21:33;101334.56;;;17.44;65.91
62374;BME280;48409;49.030;1.820;2022-10-19T04:24:00;101339.81;;;17.46;66.20
62374;BME280;48409;49.030;1.820;2022-10-19T04:26:26;101337.03;;;17.47;65.66
62374;BME280;48409;49.030;1.820;2022-10-19T04:28:52;101324.69;;;17.46;65.87
62374;BME280;48409;49.030;1.820;2022-10-19T04:31:18;101315.75;;;17.47;65.83
62374;BME280;48409;49.030;1.820;2022-10-19T04:33:44;101308.50;;;17.49;66.03
62374;BME280;48409;49.030;1.820;2022-10-19T04:36:11;101299.56;;;17.51;65.89
62374;BME280;48409;49.030;1.820;2022-10-19T04:38:37;101290.63;;;17.52;65.93
62374;BME280;48409;49.030;1.820;2022-10-19T04:41:04;101284.44;;;17.51;65.86
62374;BME280;48409;49.030;1.820;2022-10-19T04:43:30;101285.28;;;17.52;65.94
62374;BME280;48409;49.030;1.820;2022-10-19T04:46:00;101284.44;;;17.51;65.82
62374;BME280;48409;49.030;1.820;2022-10-19T04:48:25;101279.97;;;17.52;66.03
62374;BME280;48409;49.030;1.820;2022-10-19T04:50:53;101280.81;;;17.52;65.92
62374;BME280;48409;49.030;1.820;2022-10-19T04:53:19;101274.53;;;17.53;65.82
62374;BME280;48409;49.030;1.820;2022-10-19T04:55:45;101285.19;;;17.53;65.76
62374;BME280;48409;49.030;1.820;2022-10-19T04:58:10;101279.88;;;17.53;66.01
62374;BME280;48409;49.030;1.820;2022-10-19T05:00:39;101279.78;;;17.55;65.89
62374;BME280;48409;49.030;1.820;2022-10-19T05:03:04;101275.38;;;17.54;65.86
62374;BME280;48409;49.030;1.820;2022-10-19T05:05:31;101264.72;;;17.54;65.81
62374;BME280;48409;49.030;1.820;2022-10-19T05:07:56;101269.13;;;17.55;65.87
62374;BME280;48409;49.030;1.820;2022-10-19T05:10:22;101265.50;;;17.56;65.93
62374;BME280;48409;49.030;1.820;2022-10-19T05:12:47;101255.81;;;17.55;66.15
62374;BME280;48409;49.030;1.820;2022-10-19T05:15:13;101254.84;;;17.56;66.00
62374;BME280;48409;49.030;1.820;2022-10-19T05:17:38;101252.16;;;17.56;65.88
62374;BME280;48409;49.030;1.820;2022-10-19T05:20:04;101261.88;;;17.57;65.99
62374;BME280;48409;49.030;1.820;2022-10-19T05:22:29;101256.53;;;17.57;66.03
62374;BME280;48409;49.030;1.820;2022-10-19T05:24:55;101260.16;;;17.56;65.92
62374;BME280;48409;49.030;1.820;2022-10-19T05:27:20;101256.53;;;17.57;65.98
62374;BME280;48409;49.030;1.820;2022-10-19T05:29:46;101252.91;;;17.58;65.90
62374;BME280;48409;49.030;1.820;2022-10-19T05:32:11;101252.91;;;17.58;66.01
62374;BME280;48409;49.030;1.820;2022-10-19T05:34:37;101254.59;;;17.59;66.02
62374;BME280;48409;49.030;1.820;2022-10-19T05:37:02;101241.28;;;17.59;65.88
62374;BME280;48409;49.030;1.820;2022-10-19T05:39:28;101238.63;;;17.59;65.94
62374;BME280;48409;49.030;1.820;2022-10-19T05:41:53;101242.16;;;17.59;65.93
62374;BME280;48409;49.030;1.820;2022-10-19T05:44:20;101235.03;;;17.60;65.95
62374;BME280;48409;49.030;1.820;2022-10-19T05:46:47;101233.31;;;17.59;66.05
62374;BME280;48409;49.030;1.820;2022-10-19T05:49:14;101237.69;;;17.60;65.91
62374;BME280;48409;49.030;1.820;2022-10-19T05:51:40;101237.69;;;17.60;66.03
62374;BME280;48409;49.030;1.820;2022-10-19T05:54:06;101243.13;;;17.58;65.96
62374;BME280;48409;49.030;1.820;2022-10-19T05:56:33;101233.31;;;17.59;65.84
62374;BME280;48409;49.030;1.820;2022-10-19T05:59:01;101233.31;;;17.59;66.03
62374;BME280;48409;49.030;1.820;2022-10-19T06:01:28;101231.59;;;17.58;65.98
62374;BME280;48409;49.030;1.820;2022-10-19T06:03:57;101227.25;;;17.57;65.94
62374;BME280;48409;49.030;1.820;2022-10-19T06:06:24;101226.28;;;17.58;65.87
62374;BME280;48409;49.030;1.820;2022-10-19T06:08:50;101214.78;;;17.57;65.95
62374;BME280;48409;49.030;1.820;2022-10-19T06:11:21;101208.59;;;17.57;65.86
62374;BME280;48409;49.030;1.820;2022-10-19T06:13:49;101213.94;;;17.57;65.94
62374;BME280;48409;49.030;1.820;2022-10-19T06:16:16;101206.91;;;17.56;65.99
62374;BME280;48409;49.030;1.820;2022-10-19T06:18:42;101212.22;;;17.56;65.88
62374;BME280;48409;49.030;1.820;2022-10-19T06:21:13;101199.88;;;17.55;65.75
62374;BME280;48409;49.030;1.820;2022-10-19T06:23:39;101206.13;;;17.54;65.69
62374;BME280;48409;49.030;1.820;2022-10-19T06:26:07;101207.88;;;17.55;65.69
62374;BME280;48409;49.030;1.820;2022-10-19T06:28:34;101202.72;;;17.52;65.76
62374;BME280;48409;49.030;1.820;2022-10-19T06:30:59;101204.63;;;17.49;65.80
62374;BME280;48409;49.030;1.820;2022-10-19T06:33:25;101211.69;;;17.51;65.81
62374;BME280;48409;49.030;1.820;2022-10-19T06:35:51;101216.25;;;17.48;65.84
62374;BME280;48409;49.030;1.820;2022-10-19T06:38:16;101204.72;;;17.48;65.85
62374;BME280;48409;49.030;1.820;2022-10-19T06:40:42;101200.28;;;17.48;65.84
62374;BME280;48409;49.030;1.820;2022-10-19T06:43:07;101202.94;;;17.48;66.03
62374;BME280;48409;49.030;1.820;2022-10-19T06:45:36;101200.28;;;17.48;65.95
62374;BME280;48409;49.030;1.820;2022-10-19T06:48:03;101202.84;;;17.50;65.90
62374;BME280;48409;49.030;1.820;2022-10-19T06:50:30;101195.72;;;17.51;66.08
62374;BME280;48409;49.030;1.820;2022-10-19T06:52:57;101200.16;;;17.50;65.93
62374;BME280;48409;49.030;1.820;2022-10-19T06:55:26;101201.03;;;17.51;66.23
62374;BME280;48409;49.030;1.820;2022-10-19T06:57:51;101203.69;;;17.51;66.04
62374;BME280;48409;49.030;1.820;2022-10-19T07:00:16;101206.38;;;17.51;65.83
62374;BME280;48409;49.030;1.820;2022-10-19T07:02:42;101203.69;;;17.51;65.95
62374;BME280;48409;49.030;1.820;2022-10-19T07:05:08;101207.28;;;17.49;66.13
62374;BME280;48409;49.030;1.820;2022-10-19T07:07:33;101193.03;;;17.51;65.95
62374;BME280;48409;49.030;1.820;2022-10-19T07:09:59;101192.09;;;17.52;65.94
62374;BME280;48409;49.030;1.820;2022-10-19T07:12:24;101189.41;;;17.52;65.99
62374;BME280;48409;49.030;1.820;2022-10-19T07:14:50;101185.06;;;17.51;65.93
62374;BME280;48409;49.030;1.820;2022-10-19T07:17:15;101184.09;;;17.52;65.94
62374;BME280;48409;49.030;1.820;2022-10-19T07:19:41;101189.41;;;17.52;65.96
62374;BME280;48409;49.030;1.820;2022-10-19T07:22:06;101184.09;;;17.52;66.09
62374;BME280;48409;49.030;1.820;2022-10-19T07:24:31;101181.44;;;17.52;66.03
62374;BME280;48409;49.030;1.820;2022-10-19T07:26:57;101181.34;;;17.53;65.98
62374;BME280;48409;49.030;1.820;2022-10-19T07:29:22;101180.47;;;17.53;66.01
62374;BME280;48409;49.030;1.820;2022-10-19T07:31:48;101190.25;;;17.52;66.16
62374;BME280;48409;49.030;1.820;2022-10-19T07:34:13;101178.78;;;17.52;66.14
62374;BME280;48409;49.030;1.820;2022-10-19T07:36:39;101184.94;;;17.52;66.12
62374;BME280;48409;49.030;1.820;2022-10-19T07:39:10;101191.13;;;17.53;66.05
62374;BME280;48409;49.030;1.820;2022-10-19T07:41:36;101179.59;;;17.52;66.03
62374;BME280;48409;49.030;1.820;2022-10-19T07:44:02;101183.13;;;17.53;66.21
62374;BME280;48409;49.030;1.820;2022-10-19T07:46:29;101175.13;;;17.53;66.10
62374;BME280;48409;49.030;1.820;2022-10-19T07:48:58;101176.84;;;17.54;66.08
62374;BME280;48409;49.030;1.820;2022-10-19T07:51:24;101178.56;;;17.55;65.99
62374;BME280;48409;49.030;1.820;2022-10-19T07:53:49;101184.72;;;17.55;66.01
62374;BME280;48409;49.030;1.820;2022-10-19T07:56:23;101177.69;;;17.54;66.29
62374;BME280;48409;49.030;1.820;2022-10-19T07:58:50;101180.25;;;17.56;66.38
62374;BME280;48409;49.030;1.820;2022-10-19T08:01:18;101177.59;;;17.56;66.25
62374;BME280;48409;49.030;1.820;2022-10-19T08:03:44;101179.31;;;17.57;66.29
62374;BME280;48409;49.030;1.820;2022-10-19T08:06:12;101178.34;;;17.58;66.43
62374;BME280;48409;49.030;1.820;2022-10-19T08:08:38;101173.88;;;17.58;66.39
62374;BME280;48409;49.030;1.820;2022-10-19T08:13:36;101179.09;;;17.60;66.42
62374;BME280;48409;49.030;1.820;2022-10-19T08:16:02;101170.16;;;17.61;66.38
62374;BME280;48409;49.030;1.820;2022-10-19T08:18:28;101170.88;;;17.63;66.46
62374;BME280;48409;49.030;1.820;2022-10-19T08:20:53;101168.13;;;17.65;66.45
62374;BME280;48409;49.030;1.820;2022-10-19T08:23:19;101174.22;;;17.67;66.50
62374;BME280;48409;49.030;1.820;2022-10-19T08:25:44;101176.88;;;17.67;66.50
62374;BME280;48409;49.030;1.820;2022-10-19T08:28:09;101170.56;;;17.68;66.42
62374;BME280;48409;49.030;1.820;2022-10-19T08:30:35;101168.53;;;17.71;66.65
62374;BME280;48409;49.030;1.820;2022-10-19T08:33:02;101158.75;;;17.72;66.48
62374;BME280;48409;49.030;1.820;2022-10-19T08:35:30;101165.78;;;17.73;66.55
62374;BME280;48409;49.030;1.820;2022-10-19T08:37:56;101150.66;;;17.73;66.72
62374;BME280;48409;49.030;1.820;2022-10-19T08:40:25;101155.75;;;17.77;66.57
62374;BME280;48409;49.030;1.820;2022-10-19T08:48:23;101151.81;;;17.82;66.52
62374;BME280;48409;49.030;1.820;2022-10-19T08:50:50;101141.06;;;17.84;66.86
62374;BME280;48409;49.030;1.820;2022-10-19T08:53:23;101141.81;;;17.86;66.72
62374;BME280;48409;49.030;1.820;2022-10-19T08:58:51;101145.75;;;17.93;66.81
62374;BME280;48409;49.030;1.820;2022-10-19T09:01:32;101134.00;;;17.96;66.96
62374;BME280;48409;49.030;1.820;2022-10-19T09:06:57;101135.28;;;18.03;67.13
62374;BME280;48409;49.030;1.820;2022-10-19T09:09:24;101129.75;;;18.06;67.12
62374;BME280;48409;49.030;1.820;2022-10-19T09:11:55;101133.78;;;18.12;67.25
62374;BME280;48409;49.030;1.820;2022-10-19T09:14:39;101128.03;;;18.18;67.22
62374;BME280;48409;49.030;1.820;2022-10-19T09:17:13;101126.63;;;18.25;67.58
62374;BME280;48409;49.030;1.820;2022-10-19T09:19:40;101120.09;;;18.30;67.51
62374;BME280;48409;49.030;1.820;2022-10-19T09:22:31;101119.44;;;18.39;67.48
62374;BME280;48409;49.030;1.820;2022-10-19T09:25:18;101108.34;;;18.45;67.83
62374;BME280;48409;49.030;1.820;2022-10-19T09:27:46;101118.34;;;18.55;67.80
62374;BME280;48409;49.030;1.820;2022-10-19T09:30:17;101110.63;;;18.63;67.76
62374;BME280;48409;49.030;1.820;2022-10-19T09:32:43;101115.28;;;18.72;68.05
62374;BME280;48409;49.030;1.820;2022-10-19T09:37:45;101113.06;;;18.90;68.15
62374;BME280;48409;49.030;1.820;2022-10-19T09:40:23;101116.63;;;19.02;68.02
62374;BME280;48409;49.030;1.820;2022-10-19T09:42:49;101117.75;;;19.11;68.03
62374;BME280;48409;49.030;1.820;2022-10-19T09:48:24;101101.94;;;19.33;68.05
62374;BME280;48409;49.030;1.820;2022-10-19T09:51:00;101109.22;;;19.42;68.09
62374;BME280;48409;49.030;1.820;2022-10-19T09:53:27;101085.44;;;19.50;68.23
62374;BME280;48409;49.030;1.820;2022-10-19T09:56:03;101074.03;;;19.60;68.04
62374;BME280;48409;49.030;1.820;2022-10-19T09:58:31;101073.19;;;19.70;68.30
62374;BME280;48409;49.030;1.820;2022-10-19T10:00:57;101082.28;;;19.79;68.25
62374;BME280;48409;49.030;1.820;2022-10-19T10:03:32;101077.91;;;19.90;68.09
62374;BME280;48409;49.030;1.820;2022-10-19T10:06:25;101072.59;;;20.01;68.19
62374;BME280;48409;49.030;1.820;2022-10-19T10:08:53;101081.56;;;20.12;68.04
62374;BME280;48409;49.030;1.820;2022-10-19T10:11:27;101095.91;;;20.22;67.94
62374;BME280;48409;49.030;1.820;2022-10-19T10:13:55;101093.31;;;20.32;68.11
62374;BME280;48409;49.030;1.820;2022-10-19T10:16:23;101086.38;;;20.41;67.87
62374;BME280;48409;49.030;1.820;2022-10-19T10:19:07;101085.50;;;20.52;67.89
62374;BME280;48409;49.030;1.820;2022-10-19T10:21:53;101084.59;;;20.63;67.91
62374;BME280;48409;49.030;1.820;2022-10-19T10:24:21;101080.28;;;20.71;67.98
62374;BME280;48409;49.030;1.820;2022-10-19T10:26:50;101078.44;;;20.83;67.89
62374;BME280;48409;49.030;1.820;2022-10-19T10:29:35;101073.91;;;20.95;67.98
62374;BME280;48409;49.030;1.820;2022-10-19T10:32:28;101070.31;;;21.06;68.08
62374;BME280;48409;49.030;1.820;2022-10-19T10:35:01;101065.59;;;21.20;67.67
62374;BME280;48409;49.030;1.820;2022-10-19T10:37:40;101063.81;;;21.30;67.76
62374;BME280;48409;49.030;1.820;2022-10-19T10:40:27;101062.03;;;21.41;67.65
62374;BME280;48409;49.030;1.820;2022-10-19T10:42:57;101059.53;;;21.49;67.29
62374;BME280;48409;49.030;1.820;2022-10-19T10:45:30;101050.84;;;21.57;67.36
62374;BME280;48409;49.030;1.820;2022-10-19T10:47:57;101047.50;;;21.64;67.05
62374;BME280;48409;49.030;1.820;2022-10-19T10:50:30;101046.94;;;21.71;66.93
62374;BME280;48409;49.030;1.820;2022-10-19T10:53:04;101045.59;;;21.76;66.56
62374;BME280;48409;49.030;1.820;2022-10-19T10:55:31;101038.13;;;21.80;66.29
62374;BME280;48409;49.030;1.820;2022-10-19T10:58:15;101038.84;;;21.82;66.33
62374;BME280;48409;49.030;1.820;2022-10-19T11:00:43;101027.13;;;21.83;65.99
62374;BME280;48409;49.030;1.820;2022-10-19T11:03:20;101031.50;;;21.84;65.83
62374;BME280;48409;49.030;1.820;2022-10-19T11:05:55;101022.50;;;21.85;65.55
62374;BME280;48409;49.030;1.820;2022-10-19T11:08:26;101021.50;;;21.86;65.51
62374;BME280;48409;49.030;1.820;2022-10-19T11:13:30;101012.72;;;21.84;65.20
62374;BME280;48409;49.030;1.820;2022-10-19T11:16:00;101003.84;;;21.84;65.73
62374;BME280;48409;49.030;1.820;2022-10-19T11:18:41;100992.16;;;21.85;65.30
62374;BME280;48409;49.030;1.820;2022-10-19T11:21:12;100984.22;;;21.83;64.86
62374;BME280;48409;49.030;1.820;2022-10-19T11:24:13;100972.81;;;21.81;65.29
62374;BME280;48409;49.030;1.820;2022-10-19T11:32:26;100967.72;;;21.78;64.79
62374;BME280;48409;49.030;1.820;2022-10-19T11:35:12;100967.00;;;21.76;65.07
62374;BME280;48409;49.030;1.820;2022-10-19T11:40:26;100960.06;;;21.73;64.69
62374;BME280;48409;49.030;1.820;2022-10-19T11:43:00;100961.16;;;21.71;64.65
62374;BME280;48409;49.030;1.820;2022-10-19T11:49:11;100945.09;;;21.71;64.74
62374;BME280;48409;49.030;1.820;2022-10-19T11:54:08;100938.31;;;21.67;64.35
62374;BME280;48409;49.030;1.820;2022-10-19T12:02:18;100923.78;;;21.59;64.60
62374;BME280;48409;49.030;1.820;2022-10-19T12:04:55;100932.94;;;21.57;64.28
62374;BME280;48409;49.030;1.820;2022-10-19T12:07:35;100934.91;;;21.55;64.43
62374;BME280;48409;49.030;1.820;2022-10-19T12:10:44;100942.25;;;21.52;64.40
62374;BME280;48409;49.030;1.820;2022-10-19T12:13:14;100941.38;;;21.52;64.08
62374;BME280;48409;49.030;1.820;2022-10-19T12:15:50;100939.69;;;21.51;64.39
62374;BME280;48409;49.030;1.820;2022-10-19T12:18:38;100942.38;;;21.51;64.14
62374;BME280;48409;49.030;1.820;2022-10-19T12:21:12;100940.53;;;21.51;64.44
62374;BME280;48409;49.030;1.820;2022-10-19T12:23:43;100923.63;;;21.51;64.21
62374;BME280;48409;49.030;1.820;2022-10-19T12:26:14;100915.44;;;21.52;64.39
62374;BME280;48409;49.030;1.820;2022-10-19T12:28:45;100905.56;;;21.53;63.91
62374;BME280;48409;49.030;1.820;2022-10-19T12:31:12;100901.91;;;21.54;64.14
62374;BME280;48409;49.030;1.820;2022-10-19T12:37:14;100896.56;;;21.54;64.13
62374;BME280;48409;49.030;1.820;2022-10-19T12:39:15;100889.22;;;21.56;64.08
62374;BME280;48409;49.030;1.820;2022-10-19T12:41:55;100884.72;;;21.57;64.24
62374;BME280;48409;49.030;1.820;2022-10-19T12:44:37;100883.59;;;21.59;64.08
62374;BME280;48409;49.030;1.820;2022-10-19T12:47:17;100878.22;;;21.59;64.09
62374;BME280;48409;49.030;1.820;2022-10-19T12:49:51;100869.19;;;21.60;63.97
62374;BME280;48409;49.030;1.820;2022-10-19T12:52:44;100873.44;;;21.63;64.05
62374;BME280;48409;49.030;1.820;2022-10-19T12:55:24;100862.56;;;21.64;64.19
62374;BME280;48409;49.030;1.820;2022-10-19T13:00:27;100854.25;;;21.68;63.83
62374;BME280;48409;49.030;1.820;2022-10-19T14:08:39;100712.91;;;21.70;62.42
62374;BME280;48409;49.030;1.820;2022-10-19T14:11:31;100704.16;;;21.68;62.33
62374;BME280;48409;49.030;1.820;2022-10-19T14:16:49;100708.13;;;21.63;62.72
62374;BME280;48409;49.030;1.820;2022-10-19T14:19:39;100692.31;;;21.60;62.46
62374;BME280;48409;49.030;1.820;2022-10-19T14:22:28;100695.00;;;21.60;62.36
62374;BME280;48409;49.030;1.820;2022-10-19T14:25:35;100708.69;;;21.57;62.52
62374;BME280;48409;49.030;1.820;2022-10-19T14:28:05;100690.06;;;21.56;62.57
62374;BME280;48409;49.030;1.820;2022-10-19T14:30:34;100696.28;;;21.56;62.57
62374;BME280;48409;49.030;1.820;2022-10-19T14:33:13;100692.75;;;21.56;62.47
62374;BME280;48409;49.030;1.820;2022-10-19T14:35:48;100687.56;;;21.54;62.25
62374;BME280;48409;49.030;1.820;2022-10-19T14:38:36;100681.34;;;21.54;62.67
62374;BME280;48409;49.030;1.820;2022-10-19T14:41:05;100684.00;;;21.54;62.53
62374;BME280;48409;49.030;1.820;2022-10-19T14:43:37;100662.72;;;21.52;62.65
62374;BME280;48409;49.030;1.820;2022-10-19T14:48:39;100671.75;;;21.51;62.33
62374;BME280;48409;49.030;1.820;2022-10-19T14:53:51;100667.66;;;21.47;62.50
62374;BME280;48409;49.030;1.820;2022-10-19T14:56:32;100664.97;;;21.47;62.59
62374;BME280;48409;49.030;1.820;2022-10-19T14:59:02;100652.59;;;21.46;62.48
62374;BME280;48409;49.030;1.820;2022-10-19T15:01:29;100655.09;;;21.47;62.65
62374;BME280;48409;49.030;1.820;2022-10-19T15:03:55;100649.91;;;21.46;62.49
62374;BME280;48409;49.030;1.820;2022-10-19T15:06:23;100646.38;;;21.45;62.48
62374;BME280;48409;49.030;1.820;2022-10-19T15:08:55;100647.22;;;21.46;62.55
62374;BME280;48409;49.030;1.820;2022-10-19T15:11:29;100638.47;;;21.44;62.52
62374;BME280;48409;49.030;1.820;2022-10-19T15:14:19;100634.78;;;21.45;62.71
62374;BME280;48409;49.030;1.820;2022-10-19T15:16:54;100633.97;;;21.44;62.66
62374;BME280;48409;49.030;1.820;2022-10-19T15:19:31;100633.13;;;21.44;62.57
62374;BME280;48409;49.030;1.820;2022-10-19T15:24:52;100626.06;;;21.43;62.58
62374;BME280;48409;49.030;1.820;2022-10-19T15:27:21;100630.56;;;21.42;62.66
62374;BME280;48409;49.030;1.820;2022-10-19T15:29:57;100625.22;;;21.42;62.63